createdAt,value
2018-01-27T00:00:44.090Z,5.24
2018-01-27T00:01:43.939Z,5.24
2018-01-27T00:02:45.614Z,5.24
2018-01-27T00:03:43.951Z,5.24
2018-01-27T00:04:44.119Z,5.25
2018-01-27T00:05:43.972Z,5.25
2018-01-27T00:06:44.144Z,5.25
2018-01-27T00:07:43.965Z,5.24
2018-01-27T00:08:45.186Z,5.25
2018-01-27T00:09:43.975Z,5.25
2018-01-27T00:10:45.091Z,5.25
2018-01-27T00:11:44.010Z,5.27
2018-01-27T00:12:45.084Z,5.25
2018-01-27T00:13:43.988Z,5.25
2018-01-27T00:14:44.180Z,5.27
2018-01-27T00:15:44.035Z,5.27
2018-01-27T00:16:44.192Z,5.27
2018-01-27T00:17:44.012Z,5.27
2018-01-27T00:18:44.154Z,5.27
2018-01-27T00:19:44.019Z,5.27
2018-01-27T00:20:45.171Z,5.25
2018-01-27T00:21:44.040Z,5.27
2018-01-27T00:22:44.160Z,5.25
2018-01-27T00:23:44.037Z,5.25
2018-01-27T00:24:44.148Z,5.27
2018-01-27T00:25:44.050Z,5.25
2018-01-27T00:26:44.164Z,5.25
2018-01-27T00:27:44.056Z,5.24
2018-01-27T00:28:44.178Z,5.25
2018-01-27T00:29:44.075Z,5.25
2018-01-27T00:30:44.196Z,5.25
2018-01-27T00:31:44.068Z,5.25
2018-01-27T00:32:44.206Z,5.25
2018-01-27T00:33:44.092Z,5.25
2018-01-27T00:34:44.218Z,5.25
2018-01-27T00:35:44.100Z,5.27
2018-01-27T00:36:44.230Z,5.27
2018-01-27T00:37:44.135Z,5.25
2018-01-27T00:38:45.289Z,5.25
2018-01-27T00:39:44.111Z,5.27
2018-01-27T00:40:45.280Z,5.27
2018-01-27T00:41:44.147Z,5.27
2018-01-27T00:42:45.295Z,5.25
2018-01-27T00:43:44.161Z,5.25
2018-01-27T00:44:44.286Z,5.24
2018-01-27T00:45:44.152Z,5.22
2018-01-27T00:46:45.317Z,5.21
2018-01-27T00:47:44.147Z,5.19
2018-01-27T00:48:44.302Z,5.18
2018-01-27T00:49:44.163Z,5.15
2018-01-27T00:50:44.360Z,5.14
2018-01-27T00:51:44.173Z,5.09
2018-01-27T00:52:46.279Z,5.09
2018-01-27T00:53:44.185Z,5.07
2018-01-27T00:54:44.760Z,5.07
2018-01-27T00:55:44.192Z,5.04
2018-01-27T00:56:44.363Z,5.04
2018-01-27T00:57:44.196Z,5.03
2018-01-27T00:58:45.405Z,5.03
2018-01-27T00:59:44.209Z,5.03
2018-01-27T01:00:46.343Z,5.03
2018-01-27T01:01:44.203Z,5.01
2018-01-27T01:02:44.399Z,5.03
2018-01-27T01:03:44.210Z,5.03
2018-01-27T01:04:44.419Z,5.01
2018-01-27T01:05:44.225Z,5.01
2018-01-27T01:06:45.348Z,5.03
2018-01-27T01:07:44.246Z,5.03
2018-01-27T01:08:44.484Z,5.03
2018-01-27T01:09:44.241Z,5.03
2018-01-27T01:10:45.380Z,5.03
2018-01-27T01:11:44.251Z,5.03
2018-01-27T01:12:45.395Z,5.04
2018-01-27T01:13:44.263Z,5.04
2018-01-27T01:14:45.412Z,5.04
2018-01-27T01:15:45.599Z,5.04
2018-01-27T01:16:44.396Z,5.04
2018-01-27T01:17:44.280Z,5.06
2018-01-27T01:18:44.411Z,5.07
2018-01-27T01:19:44.296Z,5.07
2018-01-27T01:20:44.436Z,5.06
2018-01-27T01:21:44.299Z,5.07
2018-01-27T01:22:44.450Z,5.06
2018-01-27T01:23:44.320Z,5.06
2018-01-27T01:24:44.465Z,5.07
2018-01-27T01:25:44.323Z,5.07
2018-01-27T01:26:44.485Z,5.07
2018-01-27T01:27:44.336Z,5.09
2018-01-27T01:28:44.477Z,5.09
2018-01-27T01:29:44.336Z,5.09
2018-01-27T01:30:44.499Z,5.07
2018-01-27T01:31:44.361Z,5.07
2018-01-27T01:32:45.528Z,5.07
2018-01-27T01:33:44.363Z,5.11
2018-01-27T01:34:44.519Z,5.09
2018-01-27T01:35:44.363Z,5.09
2018-01-27T01:36:44.534Z,5.09
2018-01-27T01:37:44.372Z,5.09
2018-01-27T01:38:44.552Z,5.09
2018-01-27T01:39:44.380Z,5.09
2018-01-27T01:40:44.607Z,5.11
2018-01-27T01:41:44.396Z,5.12
2018-01-27T01:42:44.583Z,5.11
2018-01-27T01:43:44.417Z,5.11
2018-01-27T01:44:44.596Z,5.12
2018-01-27T01:45:44.406Z,5.11
2018-01-27T01:46:44.603Z,5.11
2018-01-27T01:47:44.413Z,5.11
2018-01-27T01:48:44.610Z,5.09
2018-01-27T01:49:44.431Z,5.11
2018-01-27T01:50:44.525Z,5.11
2018-01-27T01:51:44.424Z,5.11
2018-01-27T01:52:44.543Z,5.11
2018-01-27T01:53:44.455Z,5.09
2018-01-27T01:54:44.652Z,5.09
2018-01-27T01:55:44.470Z,5.09
2018-01-27T01:56:44.573Z,5.09
2018-01-27T01:57:44.453Z,5.09
2018-01-27T01:58:44.578Z,5.09
2018-01-27T01:59:44.466Z,5.09
2018-01-27T02:00:44.587Z,5.07
2018-01-27T02:01:44.476Z,5.07
2018-01-27T02:02:44.513Z,5.07
2018-01-27T02:03:44.480Z,5.06
2018-01-27T02:04:44.522Z,5.07
2018-01-27T02:05:44.501Z,5.07
2018-01-27T02:06:44.526Z,5.07
2018-01-27T02:07:44.509Z,5.09
2018-01-27T02:08:44.541Z,5.09
2018-01-27T02:09:44.532Z,5.09
2018-01-27T02:10:45.578Z,5.11
2018-01-27T02:11:44.522Z,5.09
2018-01-27T02:12:44.571Z,5.07
2018-01-27T02:13:44.559Z,5.09
2018-01-27T02:14:44.581Z,5.11
2018-01-27T02:15:44.539Z,5.09
2018-01-27T02:16:46.641Z,5.09
2018-01-27T02:17:44.553Z,5.11
2018-01-27T02:18:44.607Z,5.09
2018-01-27T02:19:44.549Z,5.12
2018-01-27T02:20:44.698Z,5.11
2018-01-27T02:21:44.563Z,5.09
2018-01-27T02:22:44.634Z,5.11
2018-01-27T02:23:44.574Z,5.11
2018-01-27T02:24:44.646Z,5.11
2018-01-27T02:25:44.587Z,5.11
2018-01-27T02:26:45.687Z,5.12
2018-01-27T02:27:44.604Z,5.12
2018-01-27T02:28:44.683Z,5.14
2018-01-27T02:29:44.619Z,5.11
2018-01-27T02:30:45.721Z,5.12
2018-01-27T02:31:44.615Z,5.14
2018-01-27T02:32:45.775Z,5.11
2018-01-27T02:33:44.613Z,5.12
2018-01-27T02:34:44.734Z,5.12
2018-01-27T02:35:44.633Z,5.11
2018-01-27T02:36:44.738Z,5.12
2018-01-27T02:37:44.634Z,5.11
2018-01-27T02:38:44.788Z,5.11
2018-01-27T02:39:44.650Z,5.12
2018-01-27T02:40:46.744Z,5.12
2018-01-27T02:41:44.651Z,5.12
2018-01-27T02:42:46.766Z,5.14
2018-01-27T02:43:44.667Z,5.14
2018-01-27T02:44:51.408Z,5.15
2018-01-27T02:45:44.664Z,5.15
2018-01-27T02:46:45.750Z,5.18
2018-01-27T02:47:44.684Z,5.16
2018-01-27T02:48:45.769Z,5.16
2018-01-27T02:49:44.682Z,5.16
2018-01-27T02:50:44.863Z,5.16
2018-01-27T02:51:44.694Z,5.16
2018-01-27T02:52:45.793Z,5.15
2018-01-27T02:53:44.707Z,5.16
2018-01-27T02:54:49.289Z,5.16
2018-01-27T02:55:44.724Z,5.15
2018-01-27T02:56:45.821Z,5.18
2018-01-27T02:57:44.712Z,5.18
2018-01-27T02:58:56.813Z,5.19
2018-01-27T02:59:44.721Z,5.21
2018-01-27T03:00:46.876Z,5.22
2018-01-27T03:01:44.772Z,5.22
2018-01-27T03:02:44.846Z,5.22
2018-01-27T03:03:44.743Z,5.25
2018-01-27T03:04:46.904Z,5.25
2018-01-27T03:05:44.752Z,5.25
2018-01-27T03:06:51.850Z,5.27
2018-01-27T03:07:44.759Z,5.27
2018-01-27T03:08:51.842Z,5.27
2018-01-27T03:09:44.786Z,5.25
2018-01-27T03:10:45.928Z,5.25
2018-01-27T03:11:44.784Z,5.22
2018-01-27T03:12:45.926Z,5.19
2018-01-27T03:13:44.789Z,5.12
2018-01-27T03:14:44.933Z,5.09
2018-01-27T03:15:44.814Z,5.04
2018-01-27T03:16:45.961Z,5.00
2018-01-27T03:17:44.808Z,4.96
2018-01-27T03:18:44.951Z,4.93
2018-01-27T03:19:44.808Z,4.91
2018-01-27T03:20:46.909Z,4.89
2018-01-27T03:21:45.220Z,4.88
2018-01-27T03:22:44.977Z,4.86
2018-01-27T03:23:44.837Z,4.85
2018-01-27T03:24:46.936Z,4.85
2018-01-27T03:25:44.855Z,4.83
2018-01-27T03:26:46.961Z,4.85
2018-01-27T03:27:44.876Z,4.85
2018-01-27T03:28:45.016Z,4.83
2018-01-27T03:29:44.850Z,4.85
2018-01-27T03:30:50.891Z,4.85
2018-01-27T03:31:44.867Z,4.85
2018-01-27T03:32:45.043Z,4.85
2018-01-27T03:33:46.117Z,4.86
2018-01-27T03:34:45.091Z,4.88
2018-01-27T03:35:44.888Z,4.88
2018-01-27T03:36:50.924Z,4.89
2018-01-27T03:37:44.893Z,4.89
2018-01-27T03:38:49.899Z,4.91
2018-01-27T03:39:44.895Z,4.89
2018-01-27T03:40:44.994Z,4.91
2018-01-27T03:41:44.925Z,4.93
2018-01-27T03:42:46.044Z,4.93
2018-01-27T03:43:44.908Z,4.94
2018-01-27T03:44:45.020Z,4.96
2018-01-27T03:45:44.930Z,4.97
2018-01-27T03:46:50.893Z,4.98
2018-01-27T03:47:44.968Z,4.98
2018-01-27T03:48:46.121Z,4.98
2018-01-27T03:49:44.936Z,5.00
2018-01-27T03:50:46.095Z,5.00
2018-01-27T03:51:44.950Z,5.00
2018-01-27T03:52:46.122Z,5.01
2018-01-27T03:53:44.963Z,5.01
2018-01-27T03:54:45.094Z,5.01
2018-01-27T03:55:44.986Z,5.00
2018-01-27T03:56:47.173Z,5.03
2018-01-27T03:57:46.120Z,5.01
2018-01-27T03:58:45.138Z,5.03
2018-01-27T03:59:44.985Z,5.03
2018-01-27T04:00:55.885Z,5.01
2018-01-27T04:01:44.991Z,5.03
2018-01-27T04:02:46.166Z,5.03
2018-01-27T04:03:45.005Z,5.03
2018-01-27T04:04:45.162Z,5.04
2018-01-27T04:05:45.016Z,5.04
2018-01-27T04:06:45.233Z,5.04
2018-01-27T04:07:45.010Z,5.04
2018-01-27T04:08:45.197Z,5.04
2018-01-27T04:09:45.031Z,5.04
2018-01-27T04:10:45.210Z,5.06
2018-01-27T04:11:45.036Z,5.04
2018-01-27T04:12:50.869Z,5.06
2018-01-27T04:13:45.046Z,5.04
2018-01-27T04:14:45.236Z,5.03
2018-01-27T04:15:45.053Z,5.03
2018-01-27T04:16:46.175Z,5.03
2018-01-27T04:17:45.059Z,5.04
2018-01-27T04:18:47.229Z,5.03
2018-01-27T04:19:45.066Z,5.03
2018-01-27T04:20:45.284Z,5.01
2018-01-27T04:21:45.079Z,5.01
2018-01-27T04:22:46.218Z,5.01
2018-01-27T04:23:45.084Z,5.03
2018-01-27T04:24:49.918Z,5.01
2018-01-27T04:25:45.095Z,5.01
2018-01-27T04:26:50.752Z,5.03
2018-01-27T04:27:45.102Z,5.04
2018-01-27T04:28:45.134Z,5.04
2018-01-27T04:29:45.133Z,5.03
2018-01-27T04:30:45.162Z,5.03
2018-01-27T04:31:45.128Z,5.04
2018-01-27T04:32:45.166Z,5.04
2018-01-27T04:33:45.164Z,5.04
2018-01-27T04:34:45.174Z,5.06
2018-01-27T04:35:45.138Z,5.07
2018-01-27T04:36:46.144Z,5.09
2018-01-27T04:37:45.156Z,5.11
2018-01-27T04:38:46.229Z,5.11
2018-01-27T04:39:45.159Z,5.11
2018-01-27T04:40:47.268Z,5.11
2018-01-27T04:41:45.178Z,5.12
2018-01-27T04:42:46.261Z,5.14
2018-01-27T04:43:45.217Z,5.14
2018-01-27T04:44:45.244Z,5.12
2018-01-27T04:45:45.180Z,5.14
2018-01-27T04:46:49.785Z,5.14
2018-01-27T04:47:45.190Z,5.14
2018-01-27T04:48:45.276Z,5.15
2018-01-27T04:49:45.198Z,5.15
2018-01-27T04:50:47.336Z,5.16
2018-01-27T04:51:45.204Z,5.18
2018-01-27T04:52:47.250Z,5.18
2018-01-27T04:53:45.203Z,5.19
2018-01-27T04:54:55.856Z,5.21
2018-01-27T04:55:45.219Z,5.21
2018-01-27T04:56:55.774Z,5.21
2018-01-27T04:57:45.235Z,5.22
2018-01-27T04:58:57.890Z,5.24
2018-01-27T04:59:45.244Z,5.22
2018-01-27T05:00:47.297Z,5.25
2018-01-27T05:01:45.241Z,5.25
2018-01-27T05:02:45.370Z,5.25
2018-01-27T05:03:45.258Z,5.27
2018-01-27T05:04:47.346Z,5.27
2018-01-27T05:05:45.267Z,5.29
2018-01-27T05:06:45.393Z,5.27
2018-01-27T05:07:45.306Z,5.27
2018-01-27T05:08:51.358Z,5.29
2018-01-27T05:09:45.295Z,5.30
2018-01-27T05:10:47.366Z,5.29
2018-01-27T05:11:45.292Z,5.30
2018-01-27T05:12:51.367Z,5.30
2018-01-27T05:13:45.330Z,5.30
2018-01-27T05:15:00.292Z,5.30
2018-01-27T05:15:45.326Z,5.32
2018-01-27T05:16:46.390Z,5.32
2018-01-27T05:17:45.323Z,5.32
2018-01-27T05:19:00.321Z,5.32
2018-01-27T05:19:45.329Z,5.32
2018-01-27T05:20:45.383Z,5.34
2018-01-27T05:21:45.357Z,5.34
2018-01-27T05:22:46.440Z,5.36
2018-01-27T05:23:45.350Z,5.34
2018-01-27T05:24:45.409Z,5.36
2018-01-27T05:25:45.341Z,5.34
2018-01-27T05:26:57.307Z,5.36
2018-01-27T05:27:45.352Z,5.37
2018-01-27T05:28:51.408Z,5.36
2018-01-27T05:29:45.372Z,5.37
2018-01-27T05:30:45.452Z,5.37
2018-01-27T05:31:45.365Z,5.37
2018-01-27T05:32:45.515Z,5.37
2018-01-27T05:33:45.388Z,5.37
2018-01-27T05:34:57.361Z,5.37
2018-01-27T05:35:45.380Z,5.37
2018-01-27T05:36:52.357Z,5.37
2018-01-27T05:37:45.411Z,5.37
2018-01-27T05:38:46.524Z,5.36
2018-01-27T05:39:45.395Z,5.37
2018-01-27T05:40:47.468Z,5.36
2018-01-27T05:41:45.409Z,5.34
2018-01-27T05:42:45.536Z,5.34
2018-01-27T05:43:45.419Z,5.33
2018-01-27T05:45:00.344Z,5.32
2018-01-27T05:45:45.430Z,5.30
2018-01-27T05:46:45.554Z,5.29
2018-01-27T05:47:45.431Z,5.27
2018-01-27T05:48:45.585Z,5.27
2018-01-27T05:49:45.436Z,5.25
2018-01-27T05:50:45.588Z,5.27
2018-01-27T05:51:45.458Z,5.25
2018-01-27T05:52:45.498Z,5.25
2018-01-27T05:53:45.468Z,5.27
2018-01-27T05:54:52.370Z,5.27
2018-01-27T05:55:45.472Z,5.27
2018-01-27T05:56:47.570Z,5.27
2018-01-27T05:57:45.482Z,5.27
2018-01-27T05:58:46.578Z,5.27
2018-01-27T05:59:45.484Z,5.29
2018-01-27T06:00:56.302Z,5.29
2018-01-27T06:01:45.493Z,5.29
2018-01-27T06:02:46.593Z,5.29
2018-01-27T06:03:45.504Z,5.29
2018-01-27T06:04:47.633Z,5.29
2018-01-27T06:05:45.519Z,5.29
2018-01-27T06:06:45.606Z,5.29
2018-01-27T06:07:45.516Z,5.30
2018-01-27T06:08:45.618Z,5.29
2018-01-27T06:09:45.564Z,5.29
2018-01-27T06:10:47.690Z,5.30
2018-01-27T06:11:45.536Z,5.30
2018-01-27T06:12:45.648Z,5.29
2018-01-27T06:13:45.540Z,5.30
2018-01-27T06:15:02.349Z,5.30
2018-01-27T06:15:45.555Z,5.30
2018-01-27T06:16:45.665Z,5.30
2018-01-27T06:17:45.604Z,5.32
2018-01-27T06:18:51.313Z,5.32
2018-01-27T06:19:45.576Z,5.32
2018-01-27T06:20:45.708Z,5.32
2018-01-27T06:21:45.569Z,5.32
2018-01-27T06:22:45.706Z,5.32
2018-01-27T06:23:45.589Z,5.32
2018-01-27T06:24:46.750Z,5.33
2018-01-27T06:25:45.590Z,5.32
2018-01-27T06:26:45.772Z,5.32
2018-01-27T06:27:45.611Z,5.32
2018-01-27T06:28:52.420Z,5.32
2018-01-27T06:29:45.620Z,5.33
2018-01-27T06:30:45.763Z,5.33
2018-01-27T06:31:45.656Z,5.34
2018-01-27T06:32:46.696Z,5.33
2018-01-27T06:33:45.621Z,5.33
2018-01-27T06:34:47.726Z,5.33
2018-01-27T06:35:45.639Z,5.33
2018-01-27T06:36:58.396Z,5.33
2018-01-27T06:37:45.654Z,5.34
2018-01-27T06:38:46.746Z,5.34
2018-01-27T06:39:45.647Z,5.34
2018-01-27T06:40:45.826Z,5.34
2018-01-27T06:41:45.655Z,5.34
2018-01-27T06:42:45.739Z,5.33
2018-01-27T06:43:45.678Z,5.33
2018-01-27T06:44:46.777Z,5.33
2018-01-27T06:45:45.673Z,5.33
2018-01-27T06:46:45.801Z,5.34
2018-01-27T06:47:45.683Z,5.33
2018-01-27T06:48:46.802Z,5.34
2018-01-27T06:49:45.711Z,5.33
2018-01-27T06:50:46.819Z,5.34
2018-01-27T06:51:45.738Z,5.34
2018-01-27T06:52:45.807Z,5.33
2018-01-27T06:53:45.733Z,5.33
2018-01-27T06:54:52.372Z,5.33
2018-01-27T06:55:45.731Z,5.34
2018-01-27T06:56:47.932Z,5.34
2018-01-27T06:57:45.730Z,5.33
2018-01-27T06:58:45.844Z,5.33
2018-01-27T06:59:45.762Z,5.32
2018-01-27T07:00:50.367Z,5.32
2018-01-27T07:01:45.747Z,5.32
2018-01-27T07:02:47.925Z,5.32
2018-01-27T07:03:45.754Z,5.32
2018-01-27T07:04:47.948Z,5.30
2018-01-27T07:05:45.756Z,5.30
2018-01-27T07:06:46.918Z,5.30
2018-01-27T07:07:45.762Z,5.30
2018-01-27T07:08:47.862Z,5.29
2018-01-27T07:09:45.775Z,5.29
2018-01-27T07:10:50.855Z,5.29
2018-01-27T07:11:45.790Z,5.27
2018-01-27T07:12:46.969Z,5.29
2018-01-27T07:13:45.808Z,5.29
2018-01-27T07:14:50.913Z,5.27
2018-01-27T07:15:45.807Z,5.27
2018-01-27T07:16:50.892Z,5.25
2018-01-27T07:17:45.813Z,5.25
2018-01-27T07:18:50.823Z,5.27
2018-01-27T07:19:45.810Z,5.27
2018-01-27T07:20:46.848Z,5.25
2018-01-27T07:21:45.823Z,5.25
2018-01-27T07:22:45.934Z,5.27
2018-01-27T07:23:45.841Z,5.25
2018-01-27T07:24:45.949Z,5.25
2018-01-27T07:25:45.835Z,5.27
2018-01-27T07:26:52.817Z,5.27
2018-01-27T07:27:45.844Z,5.25
2018-01-27T07:28:45.877Z,5.25
2018-01-27T07:29:45.850Z,5.29
2018-01-27T07:30:46.907Z,5.27
2018-01-27T07:31:45.861Z,5.27
2018-01-27T07:32:58.801Z,5.27
2018-01-27T07:33:45.887Z,5.27
2018-01-27T07:34:45.909Z,5.27
2018-01-27T07:35:45.877Z,5.27
2018-01-27T07:36:47.981Z,5.27
2018-01-27T07:37:45.895Z,5.27
2018-01-27T07:38:51.776Z,5.29
2018-01-27T07:39:45.898Z,5.29
2018-01-27T07:40:47.998Z,5.29
2018-01-27T07:41:45.929Z,5.30
2018-01-27T07:42:47.939Z,5.29
2018-01-27T07:43:45.920Z,5.30
2018-01-27T07:44:45.968Z,5.30
2018-01-27T07:45:45.932Z,5.30
2018-01-27T07:46:45.994Z,5.30
2018-01-27T07:47:45.928Z,5.30
2018-01-27T07:48:46.009Z,5.30
2018-01-27T07:49:45.928Z,5.30
2018-01-27T07:50:48.060Z,5.32
2018-01-27T07:51:45.941Z,5.32
2018-01-27T07:52:47.048Z,5.33
2018-01-27T07:57:05.382Z,5.34
2018-01-27T07:58:05.312Z,5.33
2018-01-27T07:59:05.310Z,5.33
2018-01-27T08:00:05.298Z,5.33
2018-01-27T08:01:05.463Z,5.34
2018-01-27T08:02:05.306Z,5.37
2018-01-27T08:03:05.374Z,5.36
2018-01-27T08:04:05.321Z,5.37
2018-01-27T08:05:05.382Z,5.37
2018-01-27T08:06:05.335Z,5.37
2018-01-27T08:07:05.413Z,5.39
2018-01-27T08:08:05.348Z,5.39
2018-01-27T08:09:05.404Z,5.40
2018-01-27T08:10:05.365Z,5.40
2018-01-27T08:11:06.440Z,5.41
2018-01-27T08:12:05.372Z,5.40
2018-01-27T08:13:06.493Z,5.43
2018-01-27T08:14:05.353Z,5.44
2018-01-27T08:15:05.466Z,5.43
2018-01-27T08:16:05.372Z,5.44
2018-01-27T08:17:06.482Z,5.47
2018-01-27T08:18:05.375Z,5.48
2018-01-27T08:19:10.291Z,5.48
2018-01-27T08:20:05.404Z,5.50
2018-01-27T08:21:05.481Z,5.50
2018-01-27T08:22:05.378Z,5.51
2018-01-27T08:23:05.513Z,5.51
2018-01-27T08:24:05.418Z,5.54
2018-01-27T08:25:05.519Z,5.54
2018-01-27T08:26:05.423Z,5.54
2018-01-27T08:27:05.532Z,5.55
2018-01-27T08:28:05.425Z,5.57
2018-01-27T08:29:05.547Z,5.57
2018-01-27T08:30:05.412Z,5.58
2018-01-27T08:31:05.553Z,5.59
2018-01-27T08:32:05.462Z,5.59
2018-01-27T08:33:05.580Z,5.61
2018-01-27T08:34:05.444Z,5.59
2018-01-27T08:35:05.469Z,5.61
2018-01-27T08:36:05.495Z,5.65
2018-01-27T08:37:07.543Z,5.62
2018-01-27T08:38:05.458Z,5.65
2018-01-27T08:39:05.509Z,5.67
2018-01-27T08:40:05.473Z,5.69
2018-01-27T08:41:05.534Z,5.70
2018-01-27T08:42:05.462Z,5.72
2018-01-27T08:43:06.560Z,5.73
2018-01-27T08:44:05.494Z,5.75
2018-01-27T08:45:05.553Z,5.76
2018-01-27T08:46:05.507Z,5.79
2018-01-27T08:47:05.585Z,5.82
2018-01-27T08:48:05.508Z,5.85
2018-01-27T08:49:05.577Z,5.87
2018-01-27T08:50:05.501Z,5.90
2018-01-27T08:51:05.594Z,5.93
2018-01-27T08:52:05.542Z,5.95
2018-01-27T08:53:05.610Z,5.98
2018-01-27T08:54:05.517Z,6.02
2018-01-27T08:55:06.643Z,6.05
2018-01-27T08:56:05.519Z,6.06
2018-01-27T08:57:05.631Z,6.08
2018-01-27T08:58:05.536Z,6.09
2018-01-27T08:59:05.674Z,6.12
2018-01-27T09:00:05.543Z,6.15
2018-01-27T09:01:05.662Z,6.15
2018-01-27T09:02:05.547Z,6.16
2018-01-27T09:03:05.675Z,6.19
2018-01-27T09:04:05.594Z,6.21
2018-01-27T09:05:05.685Z,6.24
2018-01-27T09:06:05.562Z,6.25
2018-01-27T09:07:05.701Z,6.28
2018-01-27T09:08:05.575Z,6.30
2018-01-27T09:09:05.677Z,6.32
2018-01-27T09:10:05.586Z,6.35
2018-01-27T09:11:06.654Z,6.38
2018-01-27T09:12:05.588Z,6.40
2018-01-27T09:13:05.636Z,6.45
2018-01-27T09:14:05.592Z,6.47
2018-01-27T09:15:06.682Z,6.50
2018-01-27T09:16:05.605Z,6.53
2018-01-27T09:17:10.325Z,6.56
2018-01-27T09:18:05.616Z,6.60
2018-01-27T09:19:05.681Z,6.63
2018-01-27T09:20:05.616Z,6.64
2018-01-27T09:21:06.713Z,6.65
2018-01-27T09:22:05.621Z,6.68
2018-01-27T09:23:06.736Z,6.70
2018-01-27T09:24:05.632Z,6.73
2018-01-27T09:25:05.721Z,6.75
2018-01-27T09:26:05.644Z,6.79
2018-01-27T09:27:06.600Z,6.83
2018-01-27T09:28:05.645Z,6.86
2018-01-27T09:29:06.777Z,6.92
2018-01-27T09:30:05.659Z,6.97
2018-01-27T09:31:06.611Z,7.01
2018-01-27T09:32:05.664Z,7.06
2018-01-27T09:33:05.782Z,7.10
2018-01-27T09:34:05.690Z,7.16
2018-01-27T09:35:05.795Z,7.19
2018-01-27T09:36:05.696Z,7.24
2018-01-27T09:37:05.823Z,7.28
2018-01-27T09:38:05.694Z,7.29
2018-01-27T09:39:05.767Z,7.31
2018-01-27T09:40:05.729Z,7.31
2018-01-27T09:41:05.736Z,7.33
2018-01-27T09:42:05.707Z,7.37
2018-01-27T09:43:05.746Z,7.40
2018-01-27T09:44:05.720Z,7.42
2018-01-27T09:45:06.778Z,7.47
2018-01-27T09:46:05.747Z,7.52
2018-01-27T09:47:06.796Z,7.54
2018-01-27T09:48:05.762Z,7.55
2018-01-27T09:49:05.789Z,7.58
2018-01-27T09:50:05.756Z,7.58
2018-01-27T09:51:05.758Z,7.60
2018-01-27T09:52:05.804Z,7.62
2018-01-27T09:53:05.800Z,7.62
2018-01-27T09:54:07.866Z,7.64
2018-01-27T09:55:05.789Z,7.68
2018-01-27T09:56:06.867Z,7.69
2018-01-27T09:57:05.797Z,7.69
2018-01-27T09:58:05.806Z,7.69
2018-01-27T09:59:07.916Z,7.69
2018-01-27T10:00:05.857Z,7.71
2018-01-27T10:01:05.866Z,7.71
2018-01-27T10:02:05.824Z,7.69
2018-01-27T10:03:10.792Z,7.69
2018-01-27T10:04:05.814Z,7.66
2018-01-27T10:05:05.818Z,7.66
2018-01-27T10:06:05.911Z,7.62
2018-01-27T10:07:05.836Z,7.62
2018-01-27T10:08:05.855Z,7.58
2018-01-27T10:09:05.843Z,7.54
2018-01-27T10:10:06.954Z,7.50
2018-01-27T10:11:05.858Z,7.46
2018-01-27T10:12:06.968Z,7.40
2018-01-27T10:13:05.865Z,7.36
2018-01-27T10:14:05.949Z,7.33
2018-01-27T10:15:05.861Z,7.26
2018-01-27T10:16:05.964Z,7.21
2018-01-27T10:17:05.870Z,7.13
2018-01-27T10:18:05.879Z,7.06
2018-01-27T10:19:05.889Z,6.99
2018-01-27T10:20:05.991Z,6.92
2018-01-27T10:21:05.940Z,6.86
2018-01-27T10:22:06.012Z,6.82
2018-01-27T10:23:05.928Z,6.78
2018-01-27T10:24:05.905Z,6.73
2018-01-27T10:25:06.025Z,6.68
2018-01-27T10:26:05.911Z,6.65
2018-01-27T10:27:05.931Z,6.64
2018-01-27T10:28:05.921Z,6.61
2018-01-27T10:29:05.962Z,6.60
2018-01-27T10:30:05.948Z,6.55
2018-01-27T10:31:05.978Z,6.52
2018-01-27T10:32:05.949Z,6.47
2018-01-27T10:33:05.973Z,6.43
2018-01-27T10:34:05.977Z,6.37
2018-01-27T10:35:07.012Z,6.34
2018-01-27T10:36:05.962Z,6.31
2018-01-27T10:37:05.971Z,6.34
2018-01-27T10:38:05.971Z,6.37
2018-01-27T10:39:07.038Z,6.43
2018-01-27T10:40:05.992Z,6.50
2018-01-27T10:41:06.042Z,6.56
2018-01-27T10:42:05.999Z,6.64
2018-01-27T10:43:06.009Z,6.70
2018-01-27T10:44:06.000Z,6.75
2018-01-27T10:45:06.063Z,6.81
2018-01-27T10:46:06.015Z,6.83
2018-01-27T10:47:06.072Z,6.86
2018-01-27T10:48:06.045Z,6.88
2018-01-27T10:49:06.089Z,6.89
2018-01-27T10:50:06.024Z,6.89
2018-01-27T10:51:06.123Z,6.91
2018-01-27T10:52:06.045Z,6.91
2018-01-27T10:53:06.114Z,6.91
2018-01-27T10:54:06.046Z,6.91
2018-01-27T10:55:06.133Z,6.92
2018-01-27T10:56:06.051Z,6.91
2018-01-27T10:57:06.087Z,6.91
2018-01-27T10:58:06.091Z,6.91
2018-01-27T10:59:06.174Z,6.88
2018-01-27T11:00:06.069Z,6.88
2018-01-27T11:01:06.180Z,6.85
2018-01-27T11:02:06.072Z,6.83
2018-01-27T11:03:07.111Z,6.82
2018-01-27T11:04:06.097Z,6.82
2018-01-27T11:05:07.127Z,6.81
2018-01-27T11:06:06.112Z,6.82
2018-01-27T11:07:06.207Z,6.82
2018-01-27T11:08:06.101Z,6.82
2018-01-27T11:09:06.136Z,6.86
2018-01-27T11:10:06.111Z,6.91
2018-01-27T11:11:06.160Z,6.96
2018-01-27T11:12:06.133Z,7.00
2018-01-27T11:13:06.122Z,7.06
2018-01-27T11:14:06.129Z,7.11
2018-01-27T11:15:06.193Z,7.15
2018-01-27T11:16:06.139Z,7.18
2018-01-27T11:17:07.275Z,7.19
2018-01-27T11:18:06.154Z,7.21
2018-01-27T11:19:07.232Z,7.22
2018-01-27T11:20:06.164Z,7.19
2018-01-27T11:21:06.197Z,7.18
2018-01-27T11:22:06.181Z,7.18
2018-01-27T11:23:06.212Z,7.15
2018-01-27T11:24:06.186Z,7.11
2018-01-27T11:25:06.235Z,7.10
2018-01-27T11:26:06.188Z,7.10
2018-01-27T11:27:06.244Z,7.10
2018-01-27T11:28:06.196Z,7.08
2018-01-27T11:29:06.263Z,7.08
2018-01-27T11:30:06.232Z,7.08
2018-01-27T11:31:06.328Z,7.10
2018-01-27T11:32:06.206Z,7.08
2018-01-27T11:33:06.288Z,7.11
2018-01-27T11:34:06.264Z,7.11
2018-01-27T11:35:06.311Z,7.13
2018-01-27T11:36:06.270Z,7.16
2018-01-27T11:37:06.361Z,7.18
2018-01-27T11:38:06.245Z,7.19
2018-01-27T11:39:06.333Z,7.25
2018-01-27T11:40:06.246Z,7.29
2018-01-27T11:41:07.747Z,7.29
2018-01-27T11:42:06.259Z,7.33
2018-01-27T11:43:06.354Z,7.36
2018-01-27T11:44:06.262Z,7.37
2018-01-27T11:45:07.289Z,7.42
2018-01-27T11:46:06.275Z,7.44
2018-01-27T11:47:06.766Z,7.47
2018-01-27T11:48:06.299Z,7.52
2018-01-27T11:49:06.284Z,7.57
2018-01-27T11:50:06.294Z,7.55
2018-01-27T11:51:06.424Z,7.60
2018-01-27T11:52:06.291Z,7.61
2018-01-27T11:53:06.484Z,7.62
2018-01-27T11:54:06.310Z,7.66
2018-01-27T11:55:06.336Z,7.68
2018-01-27T11:56:06.376Z,7.71
2018-01-27T11:57:06.353Z,7.71
2018-01-27T11:58:06.328Z,7.71
2018-01-27T11:59:06.337Z,7.73
2018-01-27T12:00:06.366Z,7.73
2018-01-27T12:01:06.342Z,7.69
2018-01-27T12:02:07.410Z,7.71
2018-01-27T12:03:06.344Z,7.69
2018-01-27T12:04:06.417Z,7.66
2018-01-27T12:05:06.353Z,7.66
2018-01-27T12:06:06.360Z,7.66
2018-01-27T12:07:06.428Z,7.66
2018-01-27T12:08:06.373Z,7.66
2018-01-27T12:09:06.373Z,7.66
2018-01-27T12:10:06.376Z,7.64
2018-01-27T12:11:06.402Z,7.64
2018-01-27T12:12:06.460Z,7.62
2018-01-27T12:13:06.410Z,7.60
2018-01-27T12:14:07.372Z,7.58
2018-01-27T12:15:06.400Z,7.55
2018-01-27T12:16:06.534Z,7.54
2018-01-27T12:17:06.419Z,7.50
2018-01-27T12:18:06.495Z,7.49
2018-01-27T12:19:06.410Z,7.49
2018-01-27T12:20:06.501Z,7.47
2018-01-27T12:21:06.429Z,7.44
2018-01-27T12:22:06.522Z,7.44
2018-01-27T12:23:06.425Z,7.46
2018-01-27T12:24:07.535Z,7.46
2018-01-27T12:25:06.442Z,7.46
2018-01-27T12:26:06.528Z,7.46
2018-01-27T12:27:06.455Z,7.46
2018-01-27T12:28:06.539Z,7.46
2018-01-27T12:29:06.469Z,7.44
2018-01-27T12:30:06.551Z,7.42
2018-01-27T12:31:06.470Z,7.37
2018-01-27T12:32:06.564Z,7.36
2018-01-27T12:33:06.474Z,7.33
2018-01-27T12:34:07.498Z,7.33
2018-01-27T12:35:06.479Z,7.28
2018-01-27T12:36:07.511Z,7.29
2018-01-27T12:37:06.518Z,7.28
2018-01-27T12:38:06.624Z,7.29
2018-01-27T12:39:06.497Z,7.33
2018-01-27T12:40:06.633Z,7.36
2018-01-27T12:41:06.538Z,7.39
2018-01-27T12:42:06.635Z,7.39
2018-01-27T12:43:06.521Z,7.40
2018-01-27T12:44:06.542Z,7.42
2018-01-27T12:45:06.537Z,7.42
2018-01-27T12:46:06.549Z,7.43
2018-01-27T12:47:06.531Z,7.43
2018-01-27T12:48:06.539Z,7.42
2018-01-27T12:49:06.544Z,7.40
2018-01-27T12:50:07.608Z,7.40
2018-01-27T12:51:06.554Z,7.40
2018-01-27T12:52:06.599Z,7.43
2018-01-27T12:53:06.590Z,7.46
2018-01-27T12:54:06.606Z,7.49
2018-01-27T12:55:06.572Z,7.52
2018-01-27T12:56:06.621Z,7.54
2018-01-27T12:57:06.635Z,7.58
2018-01-27T12:58:06.636Z,7.62
2018-01-27T12:59:06.592Z,7.66
2018-01-27T13:00:11.260Z,7.69
2018-01-27T13:01:06.606Z,7.73
2018-01-27T13:02:06.662Z,7.77
2018-01-27T13:03:06.615Z,7.80
2018-01-27T13:04:07.696Z,7.81
2018-01-27T13:05:06.619Z,7.83
2018-01-27T13:06:06.693Z,7.84
2018-01-27T13:07:06.634Z,7.86
2018-01-27T13:08:08.662Z,7.87
2018-01-27T13:09:06.627Z,7.87
2018-01-27T13:10:06.714Z,7.88
2018-01-27T13:11:06.674Z,7.88
2018-01-27T13:12:12.296Z,7.91
2018-01-27T13:13:06.643Z,7.92
2018-01-27T13:14:09.251Z,7.92
2018-01-27T13:15:06.745Z,7.95
2018-01-27T13:16:06.665Z,7.96
2018-01-27T13:17:06.757Z,7.96
2018-01-27T13:18:06.672Z,7.96
2018-01-27T13:19:06.787Z,7.94
2018-01-27T13:20:06.686Z,7.87
2018-01-27T13:21:06.780Z,7.84
2018-01-27T13:22:06.697Z,7.84